createdAt,value
2023-01-30T00:04:12.579Z,-2.15
2023-01-30T00:09:17.056Z,-2.20
2023-01-30T00:14:19.470Z,-2.27
2023-01-30T00:19:22.004Z,-2.33
2023-01-30T00:24:24.121Z,-2.39
2023-01-30T00:29:26.194Z,-2.46
2023-01-30T00:34:35.443Z,-2.56
2023-01-30T00:39:40.753Z,-2.68
2023-01-30T00:45:01.659Z,-2.82
2023-01-30T00:50:05.552Z,-3.00
2023-01-30T00:55:09.005Z,-3.18
2023-01-30T01:00:11.794Z,-3.34
2023-01-30T01:05:15.878Z,-3.46
2023-01-30T01:10:18.229Z,-3.58
2023-01-30T01:15:22.402Z,-3.64
2023-01-30T01:20:24.453Z,-3.68
2023-01-30T01:25:26.432Z,-3.73
2023-01-30T01:30:28.313Z,-3.78
2023-01-30T01:35:30.156Z,-3.80
2023-01-30T01:40:50.647Z,-3.81
2023-01-30T01:45:58.632Z,-3.83
2023-01-30T01:51:17.713Z,-3.83
2023-01-30T01:56:20.939Z,-3.82
2023-01-30T02:01:23.097Z,-3.79
2023-01-30T02:06:28.335Z,-3.76
2023-01-30T02:11:47.860Z,-3.74
2023-01-30T02:16:49.755Z,-3.71
2023-01-30T02:22:18.458Z,-3.67
2023-01-30T02:27:34.232Z,-3.62
2023-01-30T02:32:56.199Z,-3.57
2023-01-30T02:38:10.780Z,-3.50
2023-01-30T02:43:46.748Z,-3.42
2023-01-30T02:48:57.656Z,-3.33
2023-01-30T02:54:00.585Z,-3.24
2023-01-30T02:59:08.535Z,-3.16
2023-01-30T03:04:32.868Z,-3.10
2023-01-30T03:09:52.574Z,-3.08
2023-01-30T03:15:17.901Z,-3.10
2023-01-30T03:20:23.896Z,-3.13
2023-01-30T03:25:29.410Z,-3.15
2023-01-30T03:30:31.703Z,-3.15
2023-01-30T03:35:41.382Z,-3.11
2023-01-30T03:40:45.003Z,-3.05
2023-01-30T03:45:47.049Z,-3.00
2023-01-30T03:50:49.367Z,-2.95
2023-01-30T03:55:51.772Z,-2.90
2023-01-30T04:00:57.820Z,-2.85
2023-01-30T04:06:00.882Z,-2.80
2023-01-30T04:11:04.260Z,-2.76
2023-01-30T04:16:17.878Z,-2.74
2023-01-30T04:21:46.429Z,-2.70
2023-01-30T04:26:48.634Z,-2.67
2023-01-30T04:31:51.240Z,-2.64
2023-01-30T04:37:02.889Z,-2.60
2023-01-30T04:42:05.691Z,-2.57
2023-01-30T04:47:13.069Z,-2.54
2023-01-30T04:52:16.256Z,-2.52
2023-01-30T04:57:18.189Z,-2.49
2023-01-30T05:02:23.936Z,-2.49
2023-01-30T05:07:29.150Z,-2.48
2023-01-30T05:12:39.387Z,-2.46
2023-01-30T05:17:43.762Z,-2.44
2023-01-30T05:22:46.609Z,-2.43
2023-01-30T05:27:48.744Z,-2.42
2023-01-30T05:32:50.803Z,-2.41
2023-01-30T05:37:53.014Z,-2.38
2023-01-30T05:42:54.931Z,-2.36
2023-01-30T05:48:01.326Z,-2.36
2023-01-30T05:53:03.659Z,-2.35
2023-01-30T05:58:06.185Z,-2.36
2023-01-30T06:03:08.074Z,-2.36
2023-01-30T06:08:10.048Z,-2.35
2023-01-30T06:13:12.100Z,-2.31
2023-01-30T06:18:14.039Z,-2.30
2023-01-30T06:23:16.370Z,-2.30
2023-01-30T06:28:19.184Z,-2.27
2023-01-30T06:33:21.141Z,-2.24
2023-01-30T06:38:23.047Z,-2.21
2023-01-30T06:43:25.191Z,-2.18
2023-01-30T06:48:27.451Z,-2.13
2023-01-30T06:53:32.329Z,-2.10
2023-01-30T06:58:34.157Z,-2.06
2023-01-30T07:03:36.047Z,-2.04
2023-01-30T07:08:37.993Z,-2.02
2023-01-30T07:13:39.846Z,-2.00
2023-01-30T07:18:42.074Z,-1.97
2023-01-30T07:23:44.120Z,-1.94
2023-01-30T07:28:47.146Z,-1.92
2023-01-30T07:33:49.386Z,-1.91
2023-01-30T07:38:51.603Z,-1.89
2023-01-30T07:43:54.058Z,-1.85
2023-01-30T07:48:56.649Z,-1.81
2023-01-30T07:54:02.007Z,-1.80
2023-01-30T07:59:05.701Z,-1.84
2023-01-30T08:04:07.694Z,-1.87
2023-01-30T08:09:10.166Z,-1.89
2023-01-30T08:14:12.266Z,-1.81
2023-01-30T08:19:14.649Z,-1.51
2023-01-30T08:24:16.914Z,-1.17
2023-01-30T08:29:19.083Z,-0.95
2023-01-30T08:34:21.032Z,-0.89
2023-01-30T08:39:22.903Z,-0.93
2023-01-30T08:44:25.221Z,-0.97
2023-01-30T08:49:27.254Z,-1.01
2023-01-30T08:54:31.375Z,-1.08
2023-01-30T08:59:35.249Z,-1.11
2023-01-30T09:04:37.384Z,-1.12
2023-01-30T09:09:39.344Z,-1.11
2023-01-30T09:14:41.218Z,-1.05
2023-01-30T09:19:43.496Z,-0.96
2023-01-30T09:24:45.492Z,-0.88
2023-01-30T09:29:47.896Z,-0.81
2023-01-30T09:34:50.696Z,-0.74
2023-01-30T09:39:58.004Z,-0.69
2023-01-30T09:45:24.370Z,-0.66
2023-01-30T09:50:35.752Z,-0.71
2023-01-30T09:55:41.799Z,-0.82
2023-01-30T10:00:44.150Z,-0.87
2023-01-30T10:05:53.827Z,-0.90
2023-01-30T10:11:16.949Z,-1.01
2023-01-30T10:16:28.359Z,-1.09
2023-01-30T10:22:16.097Z,-1.14
2023-01-30T10:27:20.824Z,-1.12
2023-01-30T10:32:46.452Z,-1.08
2023-01-30T10:37:59.529Z,-1.01
2023-01-30T10:43:26.043Z,-0.90
2023-01-30T10:48:45.726Z,-0.77
2023-01-30T10:54:02.813Z,-0.65
2023-01-30T10:59:20.312Z,-0.53
2023-01-30T11:04:37.209Z,-0.43
2023-01-30T11:09:44.584Z,-0.28
2023-01-30T11:14:52.948Z,-0.18
2023-01-30T11:19:56.892Z,-0.11
2023-01-30T11:25:25.944Z,-0.05
2023-01-30T11:30:33.714Z,-0.05
2023-01-30T11:35:42.678Z,-0.15
2023-01-30T11:40:45.408Z,-0.20
2023-01-30T11:45:50.152Z,-0.18
2023-01-30T11:50:58.394Z,-0.08
2023-01-30T11:56:09.121Z,0.07
2023-01-30T12:01:13.405Z,0.20
2023-01-30T12:06:24.311Z,0.30
2023-01-30T12:11:32.178Z,0.39
2023-01-30T12:17:00.627Z,0.44
2023-01-30T12:22:24.636Z,0.46
2023-01-30T12:27:38.996Z,0.39
2023-01-30T12:32:42.196Z,0.26
2023-01-30T12:38:10.821Z,0.18
2023-01-30T12:43:39.452Z,0.08
2023-01-30T12:49:07.947Z,0.07
2023-01-30T12:54:35.731Z,0.08
2023-01-30T13:00:00.418Z,0.09
2023-01-30T13:05:26.344Z,0.15
2023-01-30T13:10:39.825Z,0.28
2023-01-30T13:16:07.686Z,0.43
2023-01-30T13:21:21.333Z,0.60
2023-01-30T13:26:28.812Z,0.74
2023-01-30T13:31:36.809Z,0.88
2023-01-30T13:37:04.165Z,1.09
2023-01-30T13:42:13.428Z,1.32
2023-01-30T13:47:46.449Z,1.55
2023-01-30T13:52:55.387Z,1.70
2023-01-30T13:58:26.452Z,1.78
2023-01-30T14:03:40.611Z,1.86
2023-01-30T14:08:59.600Z,1.90
2023-01-30T14:14:21.764Z,1.88
2023-01-30T14:19:54.079Z,1.86
2023-01-30T14:25:35.418Z,1.83
2023-01-30T14:30:38.735Z,1.79
2023-01-30T14:35:40.942Z,1.75
2023-01-30T14:40:58.343Z,1.72
2023-01-30T14:46:25.109Z,1.70
2023-01-30T14:51:39.338Z,1.71
2023-01-30T14:57:06.179Z,1.71
2023-01-30T15:02:17.184Z,1.73
2023-01-30T15:07:43.869Z,1.76
2023-01-30T15:13:27.949Z,1.80
2023-01-30T15:19:03.873Z,1.83
2023-01-30T15:24:45.085Z,1.83
2023-01-30T15:30:36.045Z,1.78
2023-01-30T15:35:43.969Z,1.74
2023-01-30T15:40:49.577Z,1.72
2023-01-30T15:46:25.355Z,1.72
2023-01-30T15:51:30.758Z,1.71
2023-01-30T15:56:33.336Z,1.73
2023-01-30T16:01:35.469Z,1.73
2023-01-30T16:06:38.323Z,1.74
2023-01-30T16:11:42.842Z,1.74
2023-01-30T16:17:11.917Z,1.73
2023-01-30T16:22:20.920Z,1.73
2023-01-30T16:27:30.886Z,1.71
2023-01-30T16:32:33.708Z,1.68
2023-01-30T16:37:36.404Z,1.65
2023-01-30T16:42:40.887Z,1.65
2023-01-30T16:47:42.880Z,1.62
2023-01-30T16:52:47.850Z,1.55
2023-01-30T16:57:55.437Z,1.48
2023-01-30T17:03:03.867Z,1.42
2023-01-30T17:08:09.053Z,1.37
2023-01-30T17:13:43.397Z,1.35
2023-01-30T17:18:58.369Z,1.36
2023-01-30T17:24:03.176Z,1.37
2023-01-30T17:29:07.228Z,1.37
2023-01-30T17:34:12.402Z,1.34
2023-01-30T17:39:18.183Z,1.30
2023-01-30T17:44:21.237Z,1.26
2023-01-30T17:49:26.443Z,1.24
2023-01-30T17:54:30.182Z,1.25
2023-01-30T17:59:32.737Z,1.28
2023-01-30T18:04:34.705Z,1.31
2023-01-30T18:09:36.734Z,1.33
2023-01-30T18:14:38.665Z,1.36
2023-01-30T18:19:40.658Z,1.37
2023-01-30T18:24:42.760Z,1.39
2023-01-30T18:29:45.452Z,1.41
2023-01-30T18:34:47.472Z,1.43
2023-01-30T18:39:50.194Z,1.44
2023-01-30T18:44:52.286Z,1.43
2023-01-30T18:49:54.344Z,1.44
2023-01-30T18:54:56.432Z,1.47
2023-01-30T18:59:58.345Z,1.51
2023-01-30T19:05:00.689Z,1.55
2023-01-30T19:10:03.961Z,1.58
2023-01-30T19:15:06.549Z,1.64
2023-01-30T19:20:10.939Z,1.69
2023-01-30T19:25:13.252Z,1.74
2023-01-30T19:30:15.459Z,1.77
2023-01-30T19:35:18.140Z,1.78
2023-01-30T19:40:20.710Z,1.80
2023-01-30T19:45:23.489Z,1.83
2023-01-30T19:50:25.401Z,1.83
2023-01-30T19:55:27.310Z,1.86
2023-01-30T20:00:29.215Z,1.93
2023-01-30T20:05:31.946Z,2.02
2023-01-30T20:10:33.955Z,2.12
2023-01-30T20:15:39.482Z,2.20
2023-01-30T20:20:41.480Z,2.27
2023-01-30T20:25:43.408Z,2.27
2023-01-30T20:30:45.451Z,2.20
2023-01-30T20:35:47.599Z,2.14
2023-01-30T20:40:49.827Z,2.09
2023-01-30T20:46:03.376Z,2.02
2023-01-30T20:51:11.317Z,1.98
2023-01-30T20:56:13.285Z,1.97
2023-01-30T21:01:18.604Z,1.97
2023-01-30T21:06:42.756Z,1.94
2023-01-30T21:11:48.568Z,1.93
2023-01-30T21:16:50.652Z,1.87
2023-01-30T21:21:55.336Z,1.77
2023-01-30T21:26:57.758Z,1.73
2023-01-30T21:31:59.959Z,1.75
2023-01-30T21:37:20.748Z,1.82
2023-01-30T21:42:48.712Z,1.90
2023-01-30T21:47:51.943Z,1.99
2023-01-30T21:52:54.287Z,2.04
2023-01-30T21:57:56.784Z,2.09
2023-01-30T22:02:58.676Z,2.16
2023-01-30T22:08:00.571Z,2.20
2023-01-30T22:13:06.236Z,2.21
2023-01-30T22:18:08.291Z,2.23
2023-01-30T22:23:10.615Z,2.21
2023-01-30T22:28:12.488Z,2.10
2023-01-30T22:33:14.890Z,1.90
2023-01-30T22:38:17.072Z,1.73
2023-01-30T22:43:19.049Z,1.60
2023-01-30T22:48:21.016Z,1.53
2023-01-30T22:53:23.667Z,1.51
2023-01-30T22:58:25.900Z,1.48
2023-01-30T23:03:28.193Z,1.45
2023-01-30T23:08:32.614Z,1.41
2023-01-30T23:13:39.099Z,1.36
2023-01-30T23:18:58.224Z,1.26
2023-01-30T23:24:02.205Z,1.19
2023-01-30T23:29:13.864Z,1.15
2023-01-30T23:34:18.561Z,1.13
2023-01-30T23:39:20.753Z,1.07
2023-01-30T23:44:23.270Z,1.02
2023-01-30T23:49:25.431Z,0.99
2023-01-30T23:54:30.054Z,0.99
2023-01-30T23:59:43.665Z,1.01
